Time;durP1;ratioP1;P1;durP2;ratioP2;P2;SDS_P1;SDS_P2;PMS_P1;PMS_P2;Temp;Humidity;BMP_temperature;BMP_pressure;BME280_temperature;BME280_humidity;BME280_pressure;Samples;Min_cycle;Max_cycle;Signal;HPM_P1;HPM_P2
2023/04/14 00:00:21;;;;;;;;;;;;;;;14.61;71.04;99798.25;108259;1284;21975;-65
2023/04/14 00:03:06;;;;;;;;;;;;;;;14.61;71.21;99802.52;108195;1285;23349;-65
2023/04/14 00:05:33;;;;;;;;;;;;;;;14.60;71.09;99799.54;108293;1284;21974;-63
2023/04/14 00:08:01;;;;;;;;;;;;;;;14.60;71.10;99803.42;108193;1285;23624;-64
2023/04/14 00:10:27;;;;;;;;;;;;;;;14.58;71.19;99807.54;108204;1285;21976;-66
2023/04/14 00:12:54;;;;;;;;;;;;;;;14.56;71.16;99807.26;108257;1285;22721;-64
2023/04/14 00:15:20;;;;;;;;;;;;;;;14.55;71.19;99807.66;108232;1285;21959;-64
2023/04/14 00:17:46;;;;;;;;;;;;;;;14.57;71.12;99810.04;108231;1285;21978;-64
2023/04/14 00:20:12;;;;;;;;;;;;;;;14.57;70.94;99807.60;108263;1284;21995;-65
2023/04/14 00:22:38;;;;;;;;;;;;;;;14.55;70.91;99804.85;108232;1284;21970;-66
2023/04/14 00:25:04;;;;;;;;;;;;;;;14.53;70.91;99801.91;108259;1285;23718;-64
2023/04/14 00:27:31;;;;;;;;;;;;;;;14.50;70.68;99803.96;108306;1284;23603;-64
2023/04/14 00:29:58;;;;;;;;;;;;;;;14.46;70.59;99806.05;108265;1285;21972;-64
2023/04/14 00:32:24;;;;;;;;;;;;;;;14.41;70.71;99811.19;108233;1284;21997;-64
2023/04/14 00:34:50;;;;;;;;;;;;;;;14.34;70.73;99808.10;108242;1284;23696;-65
2023/04/14 00:37:16;;;;;;;;;;;;;;;14.29;70.68;99807.75;108230;1285;23704;-64
2023/04/14 00:39:42;;;;;;;;;;;;;;;14.31;70.70;99811.76;108258;1285;21974;-67
2023/04/14 00:42:07;;;;;;;;;;;;;;;14.31;70.73;99807.36;108232;1285;23722;-65
2023/04/14 00:44:33;;;;;;;;;;;;;;;14.28;70.55;99807.06;108268;1285;21976;-65
2023/04/14 00:46:59;;;;;;;;;;;;;;;14.24;70.37;99806.34;108267;1285;21969;-65
2023/04/14 00:49:25;;;;;;;;;;;;;;;14.19;70.22;99807.58;108295;1285;22019;-64
2023/04/14 00:51:51;;;;;;;;;;;;;;;14.17;70.23;99811.54;108233;1285;22025;-65
2023/04/14 00:54:17;;;;;;;;;;;;;;;14.15;70.03;99811.60;108308;1284;21955;-66
2023/04/14 00:56:43;;;;;;;;;;;;;;;14.11;69.97;99814.77;108283;1284;21978;-65
2023/04/14 00:59:08;;;;;;;;;;;;;;;14.00;70.14;99817.95;108247;1285;21977;-64
2023/04/14 01:01:36;;;;;;;;;;;;;;;13.93;69.60;99819.95;108263;1285;21970;-65
2023/04/14 01:04:03;;;;;;;;;;;;;;;13.88;69.53;99818.02;108302;1285;21967;-64
2023/04/14 01:06:29;;;;;;;;;;;;;;;13.82;69.22;99815.77;108263;1284;22431;-67
2023/04/14 01:08:55;;;;;;;;;;;;;;;13.75;69.15;99815.30;108394;1284;21971;-65
2023/04/14 01:11:36;;;;;;;;;;;;;;;13.67;69.19;99813.45;108379;1284;22459;-64
2023/04/14 01:14:12;;;;;;;;;;;;;;;13.59;69.57;99812.67;108291;1284;22172;-66
2023/04/14 01:16:38;;;;;;;;;;;;;;;13.50;70.07;99811.02;108260;1284;23608;-64
2023/04/14 01:19:07;;;;;;;;;;;;;;;13.40;70.76;99812.20;108302;1285;23593;-66
2023/04/14 01:21:34;;;;;;;;;;;;;;;13.34;71.14;99813.98;108187;1285;22015;-66
2023/04/14 01:24:00;;;;;;;;;;;;;;;13.31;71.15;99813.37;108259;1285;21970;-66
2023/04/14 01:26:27;;;;;;;;;;;;;;;13.30;71.66;99815.70;108437;1284;21965;-64
2023/04/14 01:28:54;;;;;;;;;;;;;;;13.29;72.10;99822.95;108340;1284;21968;-64
2023/04/14 01:31:27;;;;;;;;;;;;;;;13.26;72.70;99829.39;108340;1284;22176;-67
2023/04/14 01:33:56;;;;;;;;;;;;;;;13.29;72.63;99826.84;108413;1284;21985;-65
2023/04/14 01:36:26;;;;;;;;;;;;;;;13.33;72.81;99823.34;108416;1284;21971;-64
2023/04/14 01:38:51;;;;;;;;;;;;;;;13.39;72.75;99822.81;108282;1284;23653;-67
2023/04/14 01:41:18;;;;;;;;;;;;;;;13.41;73.02;99819.08;108245;1285;21983;-65
2023/04/14 01:43:44;;;;;;;;;;;;;;;13.40;73.44;99816.27;108192;1285;21966;-66
2023/04/14 01:46:13;;;;;;;;;;;;;;;13.35;73.23;99819.58;108230;1284;21974;-66
2023/04/14 01:48:39;;;;;;;;;;;;;;;13.35;72.15;99820.12;108233;1284;21978;-64
2023/04/14 01:51:05;;;;;;;;;;;;;;;13.33;71.85;99822.82;108335;1284;22005;-65
2023/04/14 01:53:31;;;;;;;;;;;;;;;13.24;72.91;99822.92;108305;1285;21965;-64
2023/04/14 01:55:57;;;;;;;;;;;;;;;13.15;73.53;99822.33;108338;1278;21959;-66
2023/04/14 01:58:23;;;;;;;;;;;;;;;13.10;73.32;99821.27;108179;1284;22091;-64
2023/04/14 02:00:49;;;;;;;;;;;;;;;13.05;73.16;99818.93;108117;1284;21967;-64
2023/04/14 02:03:17;;;;;;;;;;;;;;;13.05;72.71;99819.11;108195;1281;21972;-67
2023/04/14 02:05:43;;;;;;;;;;;;;;;13.04;73.54;99822.68;108301;1284;23718;-64
2023/04/14 02:08:10;;;;;;;;;;;;;;;13.02;73.32;99823.08;108241;1285;23844;-65
2023/04/14 02:10:36;;;;;;;;;;;;;;;13.05;73.09;99822.30;108358;1285;22054;-64
2023/04/14 02:13:06;;;;;;;;;;;;;;;13.10;73.05;99821.97;108264;1284;21974;-65
2023/04/14 02:15:41;;;;;;;;;;;;;;;13.18;73.04;99825.94;108243;1283;24080;-67
2023/04/14 02:18:08;;;;;;;;;;;;;;;13.23;72.83;99825.95;108326;1280;21959;-64
2023/04/14 02:20:33;;;;;;;;;;;;;;;13.27;72.80;99826.38;108337;1283;23589;-67
2023/04/14 02:23:19;;;;;;;;;;;;;;;13.30;72.59;99827.16;108166;1284;23074;-66
2023/04/14 02:25:48;;;;;;;;;;;;;;;13.32;72.64;99827.98;108319;1284;21956;-64
2023/04/14 02:28:18;;;;;;;;;;;;;;;13.33;72.33;99829.88;108325;1280;21976;-64
2023/04/14 02:30:44;;;;;;;;;;;;;;;13.32;72.16;99832.02;107471;1284;1002530;-66
2023/04/14 02:33:11;;;;;;;;;;;;;;;13.33;72.15;99835.15;108289;1284;21974;-64
2023/04/14 02:35:38;;;;;;;;;;;;;;;13.34;72.27;99839.72;108300;1284;22013;-68
2023/04/14 02:38:06;;;;;;;;;;;;;;;13.33;72.08;99842.57;108329;1284;21970;-67
2023/04/14 02:40:33;;;;;;;;;;;;;;;13.33;71.99;99839.23;108265;1283;21968;-66
2023/04/14 02:43:00;;;;;;;;;;;;;;;13.33;72.01;99832.68;108245;1284;21960;-67
2023/04/14 02:45:26;;;;;;;;;;;;;;;13.33;72.25;99833.38;108036;1284;21968;-66
2023/04/14 02:47:57;;;;;;;;;;;;;;;13.32;72.07;99833.61;108302;1284;21967;-65
2023/04/14 02:50:22;;;;;;;;;;;;;;;13.30;72.14;99835.08;108327;1284;21957;-66
2023/04/14 02:52:50;;;;;;;;;;;;;;;13.31;72.16;99842.79;108268;1284;21975;-64
2023/04/14 02:55:16;;;;;;;;;;;;;;;13.32;71.99;99848.41;108257;1285;21967;-67
2023/04/14 02:57:42;;;;;;;;;;;;;;;13.31;72.15;99853.91;108324;1284;25119;-66
2023/04/14 03:00:08;;;;;;;;;;;;;;;13.28;72.27;99857.34;107434;1284;1002600;-64
2023/04/14 03:02:38;;;;;;;;;;;;;;;13.25;72.15;99859.55;108266;1284;22020;-64
2023/04/14 03:05:04;;;;;;;;;;;;;;;13.23;71.90;99857.68;108126;1283;21965;-67
2023/04/14 03:07:30;;;;;;;;;;;;;;;13.22;72.12;99859.31;108309;1283;21967;-66
2023/04/14 03:09:56;;;;;;;;;;;;;;;13.16;72.18;99861.95;108409;1284;23042;-64
2023/04/14 03:12:28;;;;;;;;;;;;;;;13.13;71.91;99862.23;108265;1279;21977;-64
2023/04/14 03:14:56;;;;;;;;;;;;;;;13.06;72.71;99866.82;108178;1284;21972;-66
2023/04/14 03:17:22;;;;;;;;;;;;;;;12.97;72.58;99863.08;108216;1284;25007;-64
2023/04/14 03:19:49;;;;;;;;;;;;;;;12.91;72.18;99865.52;108334;1284;21974;-64
2023/04/14 03:22:16;;;;;;;;;;;;;;;12.87;72.29;99863.36;108127;1284;23981;-65
2023/04/14 03:24:42;;;;;;;;;;;;;;;12.85;72.16;99866.56;108278;1284;21982;-68
2023/04/14 03:27:09;;;;;;;;;;;;;;;12.84;72.24;99869.08;108047;1284;21966;-64
2023/04/14 03:29:39;;;;;;;;;;;;;;;12.86;72.12;99866.73;108266;1284;21963;-64
2023/04/14 03:32:06;;;;;;;;;;;;;;;12.89;72.12;99866.11;108253;1284;21981;-67
2023/04/14 03:34:33;;;;;;;;;;;;;;;12.92;72.04;99867.43;108348;1284;21990;-67
2023/04/14 03:36:58;;;;;;;;;;;;;;;12.95;72.09;99869.27;108207;1281;22005;-65
2023/04/14 03:39:31;;;;;;;;;;;;;;;13.00;72.07;99866.86;108081;1284;22144;-65
2023/04/14 03:41:57;;;;;;;;;;;;;;;13.05;71.94;99870.39;108131;1284;22010;-64
2023/04/14 03:44:24;;;;;;;;;;;;;;;13.09;71.97;99874.68;108221;1284;21989;-64
2023/04/14 03:46:50;;;;;;;;;;;;;;;13.15;72.08;99879.61;108134;1283;21979;-65
2023/04/14 03:49:16;;;;;;;;;;;;;;;13.20;72.03;99879.27;108425;1284;23693;-66
2023/04/14 03:51:42;;;;;;;;;;;;;;;13.26;72.14;99877.15;108253;1284;21973;-67
2023/04/14 03:54:08;;;;;;;;;;;;;;;13.29;71.87;99877.23;108302;1284;21970;-65
2023/04/14 03:56:39;;;;;;;;;;;;;;;13.31;71.93;99878.91;108252;1284;21991;-66
2023/04/14 03:59:11;;;;;;;;;;;;;;;13.36;72.04;99878.05;108179;1285;21979;-66
2023/04/14 04:01:38;;;;;;;;;;;;;;;13.42;72.29;99875.61;108089;1284;21977;-66
2023/04/14 04:04:04;;;;;;;;;;;;;;;13.48;72.42;99872.23;108369;1284;21967;-66
2023/04/14 04:06:30;;;;;;;;;;;;;;;13.52;72.13;99871.75;108351;1284;24883;-66
2023/04/14 04:08:56;;;;;;;;;;;;;;;13.56;72.05;99870.58;108262;1284;21987;-66
2023/04/14 04:11:22;;;;;;;;;;;;;;;13.59;71.96;99873.64;108133;1284;21964;-66
2023/04/14 04:13:47;;;;;;;;;;;;;;;13.62;72.13;99870.76;108297;1284;21966;-65
2023/04/14 04:16:14;;;;;;;;;;;;;;;13.65;72.45;99867.11;108354;1284;21974;-67
2023/04/14 04:18:45;;;;;;;;;;;;;;;13.70;72.76;99868.34;108210;1284;21984;-67
2023/04/14 04:21:10;;;;;;;;;;;;;;;13.74;73.24;99869.30;108274;1284;21980;-66
2023/04/14 04:23:37;;;;;;;;;;;;;;;13.78;73.62;99871.25;108284;1284;21977;-65
2023/04/14 04:26:02;;;;;;;;;;;;;;;13.85;73.76;99874.21;108208;1284;21981;-66
2023/04/14 04:28:42;;;;;;;;;;;;;;;13.92;74.26;99879.05;108310;1284;21980;-67
2023/04/14 04:31:08;;;;;;;;;;;;;;;14.00;74.50;99876.86;108399;1284;21972;-66
2023/04/14 04:33:34;;;;;;;;;;;;;;;14.09;75.00;99876.02;108329;1284;21981;-66
2023/04/14 04:36:01;;;;;;;;;;;;;;;14.18;75.00;99873.77;108364;1283;21968;-66
2023/04/14 04:38:26;;;;;;;;;;;;;;;14.27;74.98;99875.95;108299;1284;21964;-66
2023/04/14 04:40:52;;;;;;;;;;;;;;;14.36;75.32;99879.67;108321;1284;21977;-65
2023/04/14 04:43:18;;;;;;;;;;;;;;;14.51;76.12;99884.45;108374;1283;21974;-65
2023/04/14 04:45:49;;;;;;;;;;;;;;;14.68;76.75;99884.88;108391;1284;21971;-68
2023/04/14 04:48:15;;;;;;;;;;;;;;;14.87;76.60;99884.03;108368;1284;22442;-68
2023/04/14 04:50:42;;;;;;;;;;;;;;;15.01;76.32;99881.54;108379;1284;21966;-68
2023/04/14 04:53:08;;;;;;;;;;;;;;;15.18;76.32;99878.06;108405;1284;21970;-65
2023/04/14 04:55:36;;;;;;;;;;;;;;;15.33;76.39;99882.63;108354;1284;21963;-68
2023/04/14 04:58:01;;;;;;;;;;;;;;;15.49;76.87;99885.85;108372;1284;22009;-68
2023/04/14 05:00:28;;;;;;;;;;;;;;;15.65;76.94;99880.79;108248;1284;22002;-67
2023/04/14 05:03:13;;;;;;;;;;;;;;;15.81;76.59;99879.09;108106;1284;21965;-67
2023/04/14 05:05:39;;;;;;;;;;;;;;;15.91;76.11;99882.19;108181;1285;21964;-67
2023/04/14 05:08:04;;;;;;;;;;;;;;;16.05;76.30;99883.91;108159;1285;23055;-65
2023/04/14 05:10:30;;;;;;;;;;;;;;;16.21;76.43;99883.95;110046;1284;21960;-64
2023/04/14 05:12:56;;;;;;;;;;;;;;;16.36;76.19;99886.48;110131;1284;21940;-65
2023/04/14 05:15:22;;;;;;;;;;;;;;;16.50;76.46;99886.56;108820;1284;23095;-63
2023/04/14 05:17:58;;;;;;;;;;;;;;;16.65;76.69;99888.23;108243;1284;22012;-63
2023/04/14 05:20:23;;;;;;;;;;;;;;;16.81;76.74;99893.67;108389;1284;21982;-66
2023/04/14 05:22:49;;;;;;;;;;;;;;;16.98;76.64;99890.10;108374;1284;21964;-63
2023/04/14 05:25:15;;;;;;;;;;;;;;;17.12;76.42;99886.95;108390;1284;21975;-64
2023/04/14 05:27:41;;;;;;;;;;;;;;;17.26;76.35;99887.91;108314;1284;21966;-65
2023/04/14 05:30:08;;;;;;;;;;;;;;;17.40;76.59;99889.88;108263;1284;21977;-66
2023/04/14 05:32:34;;;;;;;;;;;;;;;17.54;76.88;99886.73;108281;1284;21972;-65
2023/04/14 05:34:59;;;;;;;;;;;;;;;17.68;77.46;99885.52;108097;1284;24105;-66
2023/04/14 05:37:28;;;;;;;;;;;;;;;17.85;76.92;99885.71;108128;1284;21973;-66
2023/04/14 05:39:54;;;;;;;;;;;;;;;17.98;76.75;99887.22;108214;1284;21968;-66
2023/04/14 05:42:20;;;;;;;;;;;;;;;18.17;77.96;99888.23;108231;1285;21971;-66
2023/04/14 05:44:46;;;;;;;;;;;;;;;18.35;77.51;99886.95;108184;1284;22021;-66
2023/04/14 05:47:11;;;;;;;;;;;;;;;18.53;77.49;99893.29;108181;1284;21970;-66
2023/04/14 05:49:37;;;;;;;;;;;;;;;18.73;78.78;99893.27;108109;1285;21972;-66
2023/04/14 05:52:03;;;;;;;;;;;;;;;18.99;79.12;99892.29;108221;1280;21976;-64
2023/04/14 05:54:31;;;;;;;;;;;;;;;19.20;78.21;99894.14;108186;1284;23608;-66
2023/04/14 05:56:58;;;;;;;;;;;;;;;19.37;76.59;99893.39;108212;1284;21979;-66
2023/04/14 05:59:24;;;;;;;;;;;;;;;19.54;76.93;99894.35;108267;1283;21966;-65
2023/04/14 06:01:51;;;;;;;;;;;;;;;19.74;76.41;99891.10;108234;1284;23041;-66
2023/04/14 06:04:18;;;;;;;;;;;;;;;19.87;74.70;99889.61;108286;1284;21972;-65
2023/04/14 06:06:44;;;;;;;;;;;;;;;20.02;75.26;99887.91;108299;1284;21992;-66
2023/04/14 06:09:10;;;;;;;;;;;;;;;20.19;75.09;99887.73;108204;1284;21972;-66
2023/04/14 06:11:36;;;;;;;;;;;;;;;20.37;74.62;99883.46;108259;1283;21972;-66
2023/04/14 06:14:04;;;;;;;;;;;;;;;20.45;70.34;99882.83;108201;1284;23050;-65
2023/04/14 06:16:30;;;;;;;;;;;;;;;20.42;70.74;99883.55;108351;1284;21970;-64
2023/04/14 06:18:57;;;;;;;;;;;;;;;20.43;71.49;99885.44;108349;1283;21969;-65
2023/04/14 06:21:23;;;;;;;;;;;;;;;20.56;72.16;99886.23;108309;1283;21965;-65
2023/04/14 06:23:48;;;;;;;;;;;;;;;20.73;72.02;99887.86;108363;1282;21970;-66
2023/04/14 06:26:15;;;;;;;;;;;;;;;20.89;71.16;99889.39;108210;1284;23625;-65
2023/04/14 06:28:42;;;;;;;;;;;;;;;21.03;70.28;99889.96;108185;1284;21998;-65
2023/04/14 06:31:07;;;;;;;;;;;;;;;21.18;71.07;99890.75;108233;1284;22000;-64
2023/04/14 06:33:34;;;;;;;;;;;;;;;21.37;70.93;99889.40;108210;1283;21972;-66
2023/04/14 06:36:00;;;;;;;;;;;;;;;21.56;72.00;99887.95;108211;1284;21969;-65
2023/04/14 06:38:26;;;;;;;;;;;;;;;21.85;72.36;99877.33;108195;1284;21988;-65
2023/04/14 06:40:52;;;;;;;;;;;;;;;22.08;70.53;99878.61;108179;1284;21972;-64
2023/04/14 06:43:18;;;;;;;;;;;;;;;22.27;69.10;99883.78;108209;1284;23583;-66
2023/04/14 06:45:46;;;;;;;;;;;;;;;22.43;65.76;99882.19;108385;1283;23599;-64
2023/04/14 06:48:13;;;;;;;;;;;;;;;22.48;65.67;99877.15;108271;1284;21967;-66
2023/04/14 06:50:38;;;;;;;;;;;;;;;22.56;64.71;99874.07;108333;1280;23697;-66
2023/04/14 06:53:06;;;;;;;;;;;;;;;22.72;64.36;99875.69;108196;1284;23815;-66
2023/04/14 06:55:34;;;;;;;;;;;;;;;22.89;65.59;99876.95;108152;1284;22131;-66
2023/04/14 06:58:02;;;;;;;;;;;;;;;22.98;62.28;99876.31;108237;1283;23719;-66
2023/04/14 07:00:29;;;;;;;;;;;;;;;23.03;62.31;99875.25;108384;1283;24384;-65
2023/04/14 07:02:55;;;;;;;;;;;;;;;23.02;59.20;99874.22;108398;1283;21979;-65
2023/04/14 07:05:20;;;;;;;;;;;;;;;23.03;61.05;99877.89;108401;1282;21965;-65
2023/04/14 07:07:47;;;;;;;;;;;;;;;23.09;60.45;99876.77;108388;1283;21967;-65
2023/04/14 07:10:12;;;;;;;;;;;;;;;23.21;62.00;99872.16;108320;1283;21968;-66
2023/04/14 07:12:38;;;;;;;;;;;;;;;23.35;60.09;99870.77;108240;1284;21965;-65
2023/04/14 07:15:04;;;;;;;;;;;;;;;23.53;61.20;99873.98;108240;1284;23599;-65
2023/04/14 07:17:34;;;;;;;;;;;;;;;23.67;60.89;99878.27;108300;1284;23631;-66
2023/04/14 07:20:00;;;;;;;;;;;;;;;23.90;61.72;99876.77;108259;1284;21972;-65
2023/04/14 07:22:26;;;;;;;;;;;;;;;24.25;63.62;99877.30;108255;1284;23731;-65
2023/04/14 07:24:54;;;;;;;;;;;;;;;24.58;61.62;99872.83;108230;1284;21979;-65
2023/04/14 07:27:19;;;;;;;;;;;;;;;24.86;59.96;99871.84;108261;1284;21966;-66
2023/04/14 07:29:45;;;;;;;;;;;;;;;25.13;57.46;99874.72;108233;1284;21979;-66
2023/04/14 07:32:12;;;;;;;;;;;;;;;25.28;57.25;99873.02;108246;1284;21972;-66
2023/04/14 07:34:40;;;;;;;;;;;;;;;25.43;59.09;99871.10;108286;1284;21967;-67
2023/04/14 07:37:06;;;;;;;;;;;;;;;25.43;57.24;99867.66;108319;1284;22021;-66
2023/04/14 07:39:33;;;;;;;;;;;;;;;25.37;56.73;99871.83;108300;1284;21979;-66
2023/04/14 07:42:00;;;;;;;;;;;;;;;25.40;55.86;99871.47;108229;1283;21972;-66
2023/04/14 07:44:30;;;;;;;;;;;;;;;25.30;55.20;99871.55;108231;1284;21976;-66
2023/04/14 07:46:55;;;;;;;;;;;;;;;25.07;50.64;99869.43;108182;1284;21971;-66
2023/04/14 07:49:21;;;;;;;;;;;;;;;24.86;52.48;99869.34;108164;1284;22004;-64
2023/04/14 07:51:48;;;;;;;;;;;;;;;24.79;52.28;99870.28;108208;1285;23058;-66
2023/04/14 07:54:16;;;;;;;;;;;;;;;24.73;52.76;99870.59;108142;1284;21957;-66
2023/04/14 07:56:41;;;;;;;;;;;;;;;24.68;48.90;99873.48;108263;1284;21977;-64
2023/04/14 07:59:08;;;;;;;;;;;;;;;24.63;49.26;99874.69;108271;1284;22578;-66
2023/04/14 08:01:33;;;;;;;;;;;;;;;24.59;50.77;99875.34;108219;1284;21969;-64
2023/04/14 08:03:59;;;;;;;;;;;;;;;24.68;51.77;99879.17;108384;1284;21970;-66
2023/04/14 08:06:26;;;;;;;;;;;;;;;24.80;50.75;99875.55;108213;1281;21968;-66
2023/04/14 08:08:53;;;;;;;;;;;;;;;24.92;51.77;99876.24;108228;1284;22009;-66
2023/04/14 08:11:21;;;;;;;;;;;;;;;25.19;53.06;99877.08;108228;1283;24304;-66
2023/04/14 08:13:48;;;;;;;;;;;;;;;25.46;51.54;99875.86;108258;1284;25554;-66
2023/04/14 08:16:20;;;;;;;;;;;;;;;25.54;50.28;99872.84;108280;1283;21963;-65
2023/04/14 08:18:48;;;;;;;;;;;;;;;25.43;47.67;99873.36;108271;1284;22235;-65
2023/04/14 08:21:15;;;;;;;;;;;;;;;25.58;50.86;99870.56;108195;1285;21977;-65
2023/04/14 08:23:46;;;;;;;;;;;;;;;25.77;48.77;99866.81;108296;1284;21979;-66
2023/04/14 08:26:12;;;;;;;;;;;;;;;25.92;47.55;99861.07;108321;1283;21978;-65
2023/04/14 08:28:38;;;;;;;;;;;;;;;26.11;47.31;99868.60;108264;1284;21964;-65
2023/04/14 08:31:05;;;;;;;;;;;;;;;26.23;48.95;99871.04;108269;1284;21953;-66
2023/04/14 08:33:32;;;;;;;;;;;;;;;26.36;49.52;99870.46;108316;1284;21966;-66
2023/04/14 08:35:58;;;;;;;;;;;;;;;26.44;47.68;99869.60;108277;1284;22429;-66
2023/04/14 08:38:24;;;;;;;;;;;;;;;26.44;46.10;99873.02;108240;1284;23644;-65
2023/04/14 08:40:55;;;;;;;;;;;;;;;26.41;47.14;99874.30;108293;1284;21965;-66
2023/04/14 08:43:20;;;;;;;;;;;;;;;26.41;47.56;99873.21;108304;1284;21949;-65
2023/04/14 08:45:49;;;;;;;;;;;;;;;26.46;48.85;99869.71;108236;1284;21968;-65
2023/04/14 08:48:15;;;;;;;;;;;;;;;26.78;49.15;99870.94;108254;1277;21971;-66
2023/04/14 08:50:44;;;;;;;;;;;;;;;27.23;50.66;99867.09;108262;1284;21970;-66
2023/04/14 08:53:12;;;;;;;;;;;;;;;27.47;45.94;99862.09;108247;1284;21967;-66
2023/04/14 08:55:40;;;;;;;;;;;;;;;27.45;45.15;99863.52;108260;1284;23716;-66
2023/04/14 08:58:06;;;;;;;;;;;;;;;27.45;44.41;99860.96;108091;1283;220482;-67
2023/04/14 09:00:34;;;;;;;;;;;;;;;27.45;45.03;99859.39;108254;1284;22060;-65
2023/04/14 09:03:13;;;;;;;;;;;;;;;27.40;44.82;99857.31;108270;1284;21959;-65
2023/04/14 09:05:39;;;;;;;;;;;;;;;27.14;41.49;99863.14;108070;1284;23972;-65
2023/04/14 09:08:05;;;;;;;;;;;;;;;26.94;43.07;99862.95;108167;1284;21962;-67
2023/04/14 09:10:31;;;;;;;;;;;;;;;26.95;44.73;99860.48;108221;1280;22429;-65
2023/04/14 09:12:57;;;;;;;;;;;;;;;27.23;44.97;99853.32;108175;1284;21965;-66
2023/04/14 09:15:26;;;;;;;;;;;;;;;27.52;44.21;99853.60;108271;1284;22727;-65
2023/04/14 09:17:53;;;;;;;;;;;;;;;27.74;44.50;99850.50;108259;1284;23081;-66
2023/04/14 09:20:19;;;;;;;;;;;;;;;27.84;44.12;99848.83;108287;1283;23586;-66
2023/04/14 09:22:45;;;;;;;;;;;;;;;27.90;43.33;99846.66;108204;1281;23062;-65
2023/04/14 09:25:22;;;;;;;;;;;;;;;28.04;43.03;99848.77;108231;1284;21966;-66
2023/04/14 09:27:48;;;;;;;;;;;;;;;28.26;43.71;99847.58;108103;1285;21964;-66
2023/04/14 09:30:14;;;;;;;;;;;;;;;28.49;44.49;99845.83;108216;1284;23748;-66
2023/04/14 09:32:43;;;;;;;;;;;;;;;28.70;44.29;99844.67;108174;1284;21978;-67
2023/04/14 09:35:12;;;;;;;;;;;;;;;28.98;44.85;99845.21;108267;1284;22429;-67
2023/04/14 09:37:45;;;;;;;;;;;;;;;29.25;43.88;99849.42;108304;1281;22077;-67
2023/04/14 09:40:27;;;;;;;;;;;;;;;29.24;39.95;99848.27;108195;1283;21978;-68
2023/04/14 09:42:54;;;;;;;;;;;;;;;29.14;41.58;99845.13;108237;1284;22132;-66
2023/04/14 09:45:19;;;;;;;;;;;;;;;29.25;42.53;99844.42;108246;1283;21961;-66
2023/04/14 09:47:46;;;;;;;;;;;;;;;29.56;43.72;99842.00;108206;1284;22030;-66
2023/04/14 09:50:12;;;;;;;;;;;;;;;29.85;40.20;99835.90;108293;1283;21954;-68
2023/04/14 09:52:39;;;;;;;;;;;;;;;30.08;42.21;99838.39;108334;1284;21964;-66
2023/04/14 09:55:11;;;;;;;;;;;;;;;30.57;42.48;99841.74;108208;1284;21971;-66
2023/04/14 09:57:37;;;;;;;;;;;;;;;31.16;41.59;99840.35;108251;1284;21977;-66
2023/04/14 10:00:07;;;;;;;;;;;;;;;31.54;40.62;99838.65;108210;1284;23369;-66
2023/04/14 10:02:45;;;;;;;;;;;;;;;31.86;40.68;99843.84;108255;1283;21968;-66
2023/04/14 10:05:11;;;;;;;;;;;;;;;32.01;40.73;99846.39;108212;1284;22018;-66
2023/04/14 10:07:39;;;;;;;;;;;;;;;32.11;41.47;99847.29;108319;1284;21981;-66
2023/04/14 10:10:06;;;;;;;;;;;;;;;32.20;41.02;99851.33;108243;1281;22000;-66
2023/04/14 10:12:35;;;;;;;;;;;;;;;32.11;40.02;99848.73;108238;1283;21960;-66
2023/04/14 10:15:02;;;;;;;;;;;;;;;31.97;40.10;99854.77;108259;1281;22903;-66
2023/04/14 10:17:28;;;;;;;;;;;;;;;31.98;41.66;99855.55;108191;1284;21961;-66
2023/04/14 10:19:53;;;;;;;;;;;;;;;32.16;40.96;99856.09;108195;1284;21965;-66
2023/04/14 10:22:21;;;;;;;;;;;;;;;32.35;39.97;99853.02;108235;1284;21972;-65
2023/04/14 10:24:47;;;;;;;;;;;;;;;32.33;38.91;99857.34;108207;1284;22107;-65
2023/04/14 10:27:13;;;;;;;;;;;;;;;32.35;39.88;99856.59;108330;1284;21961;-65
2023/04/14 10:29:39;;;;;;;;;;;;;;;32.40;39.91;99856.55;108181;1283;23606;-66
2023/04/14 10:32:05;;;;;;;;;;;;;;;32.52;38.89;99855.76;108249;1284;23602;-65
2023/04/14 10:34:31;;;;;;;;;;;;;;;32.44;39.02;99854.03;108235;1283;23161;-65
2023/04/14 10:37:13;;;;;;;;;;;;;;;32.21;36.78;99859.94;108243;1284;21970;-65
2023/04/14 10:39:39;;;;;;;;;;;;;;;31.88;37.26;99865.00;108247;1284;22727;-65
2023/04/14 10:42:04;;;;;;;;;;;;;;;31.58;36.53;99867.80;108289;1284;21968;-66
2023/04/14 10:44:31;;;;;;;;;;;;;;;31.20;37.62;99868.35;108064;1284;21983;-65
2023/04/14 10:46:58;;;;;;;;;;;;;;;30.84;36.91;99866.92;108289;1284;21971;-65
2023/04/14 10:49:32;;;;;;;;;;;;;;;30.52;36.78;99866.28;108227;1284;23690;-65
2023/04/14 10:51:58;;;;;;;;;;;;;;;30.09;37.61;99866.20;108269;1285;23605;-65
2023/04/14 10:54:26;;;;;;;;;;;;;;;29.77;37.93;99869.80;108323;1284;23047;-64
2023/04/14 10:57:08;;;;;;;;;;;;;;;29.47;38.04;99869.72;108247;1284;23657;-64
2023/04/14 10:59:34;;;;;;;;;;;;;;;29.20;38.89;99871.30;108356;1284;21970;-64
2023/04/14 11:02:00;;;;;;;;;;;;;;;29.04;37.96;99871.96;108305;1284;22016;-64
2023/04/14 11:04:26;;;;;;;;;;;;;;;28.75;37.63;99869.25;108239;1281;22015;-65
2023/04/14 11:06:53;;;;;;;;;;;;;;;28.55;38.62;99871.55;108247;1284;22954;-64
2023/04/14 11:09:25;;;;;;;;;;;;;;;28.46;38.93;99870.25;108208;1284;23709;-65
2023/04/14 11:11:51;;;;;;;;;;;;;;;28.24;38.81;99867.70;108176;1283;23784;-64
2023/04/14 11:14:23;;;;;;;;;;;;;;;28.10;40.02;99871.11;108288;1284;21953;-65
2023/04/14 11:16:50;;;;;;;;;;;;;;;28.12;40.10;99871.27;108302;1284;21970;-67
2023/04/14 11:19:16;;;;;;;;;;;;;;;28.11;38.99;99873.02;108238;1284;23703;-65
2023/04/14 11:21:49;;;;;;;;;;;;;;;27.94;37.67;99867.89;108233;1284;21964;-65
2023/04/14 11:24:15;;;;;;;;;;;;;;;27.79;38.88;99870.23;108150;1284;21959;-65
2023/04/14 11:26:43;;;;;;;;;;;;;;;27.84;40.27;99869.38;108261;1284;21979;-64
2023/04/14 11:29:11;;;;;;;;;;;;;;;27.96;39.51;99869.34;108308;1284;21969;-64
2023/04/14 11:31:37;;;;;;;;;;;;;;;27.88;38.72;99870.74;108235;1284;21990;-65
2023/04/14 11:34:05;;;;;;;;;;;;;;;27.61;36.66;99869.48;108280;1284;21979;-65
2023/04/14 11:36:38;;;;;;;;;;;;;;;27.37;38.07;99872.52;108327;1281;21961;-66
2023/04/14 11:39:06;;;;;;;;;;;;;;;27.38;39.03;99873.05;108330;1284;21975;-67
2023/04/14 11:41:32;;;;;;;;;;;;;;;27.49;38.84;99872.95;108434;1281;23695;-66
2023/04/14 11:43:58;;;;;;;;;;;;;;;27.70;39.10;99867.39;108378;1284;23698;-64
2023/04/14 11:46:24;;;;;;;;;;;;;;;27.98;39.95;99863.02;108041;1284;23690;-65
2023/04/14 11:48:55;;;;;;;;;;;;;;;28.27;39.44;99858.74;108260;1284;21976;-66
2023/04/14 11:51:26;;;;;;;;;;;;;;;28.55;39.10;99856.09;108260;1277;23583;-65
2023/04/14 11:53:54;;;;;;;;;;;;;;;28.81;37.72;99859.52;108383;1284;21966;-65
2023/04/14 11:56:20;;;;;;;;;;;;;;;29.20;39.30;99862.02;108251;1284;21965;-65
2023/04/14 11:58:46;;;;;;;;;;;;;;;29.82;39.68;99857.67;108054;1284;22021;-65
2023/04/14 12:01:13;;;;;;;;;;;;;;;30.62;40.55;99858.32;108300;1284;22905;-65
2023/04/14 12:03:41;;;;;;;;;;;;;;;31.47;40.53;99857.39;108274;1284;21955;-64
2023/04/14 12:06:06;;;;;;;;;;;;;;;32.20;39.96;99849.14;108056;1283;21963;-66
2023/04/14 12:08:32;;;;;;;;;;;;;;;32.80;40.14;99841.52;108181;1284;21973;-65
2023/04/14 12:11:13;;;;;;;;;;;;;;;33.17;39.86;99843.50;108263;1284;21964;-65
2023/04/14 12:13:40;;;;;;;;;;;;;;;33.38;38.69;99840.98;108308;1284;23691;-66
2023/04/14 12:16:06;;;;;;;;;;;;;;;33.58;38.34;99841.25;108281;1284;21964;-65
2023/04/14 12:18:32;;;;;;;;;;;;;;;33.70;37.43;99841.33;108312;1284;22845;-65
2023/04/14 12:21:02;;;;;;;;;;;;;;;33.65;38.32;99848.09;108313;1280;21976;-65
2023/04/14 12:23:27;;;;;;;;;;;;;;;33.46;38.13;99853.03;108271;1284;21963;-65
2023/04/14 12:25:54;;;;;;;;;;;;;;;33.19;38.94;99851.72;108264;1284;21978;-64
2023/04/14 12:28:24;;;;;;;;;;;;;;;32.74;37.53;99849.26;108041;1284;22835;-65
2023/04/14 12:30:50;;;;;;;;;;;;;;;32.27;38.15;99851.27;108267;1284;21950;-67
2023/04/14 12:33:25;;;;;;;;;;;;;;;31.90;37.36;99852.10;108245;1284;21974;-66
2023/04/14 12:35:51;;;;;;;;;;;;;;;31.55;37.45;99857.41;108259;1283;21972;-66